createdAt,value
2022-10-17T00:00:15.628Z,101653.13
2022-10-17T00:02:42.241Z,101653.13
2022-10-17T00:05:08.687Z,101663.91
2022-10-17T00:07:35.094Z,101673.88
2022-10-17T00:10:01.384Z,101670.16
2022-10-17T00:12:27.784Z,101670.38
2022-10-17T00:14:54.198Z,101662.28
2022-10-17T00:17:20.594Z,101669.31
2022-10-17T00:19:46.914Z,101668.28
2022-10-17T00:22:13.332Z,101673.88
2022-10-17T00:24:39.602Z,101678.47
2022-10-17T00:27:05.942Z,101674.72
2022-10-17T00:29:33.296Z,101674.13
2022-10-17T00:31:59.788Z,101681.16
2022-10-17T00:34:26.142Z,101676.81
2022-10-17T00:36:52.448Z,101682.22
2022-10-17T00:39:18.778Z,101689.28
2022-10-17T00:41:45.247Z,101698.41
2022-10-17T00:44:11.697Z,101701.13
2022-10-17T00:46:38.111Z,101699.22
2022-10-17T00:49:04.479Z,101695.47
2022-10-17T00:51:30.833Z,101684.91
2022-10-17T00:53:57.253Z,101689.28
2022-10-17T00:56:23.562Z,101674.94
2022-10-17T00:58:49.911Z,101670.38
2022-10-17T01:01:16.516Z,101660.63
2022-10-17T01:03:43.038Z,101651.69
2022-10-17T01:06:11.624Z,101649.00
2022-10-17T01:08:37.893Z,101647.34
2022-10-17T01:11:04.184Z,101650.88
2022-10-17T01:13:30.593Z,101647.34
2022-10-17T01:15:56.959Z,101654.63
2022-10-17T01:18:23.797Z,101644.88
2022-10-17T01:20:51.026Z,101655.47
2022-10-17T01:23:17.623Z,101663.56
2022-10-17T01:25:44.231Z,101664.56
2022-10-17T01:28:10.532Z,101664.34
2022-10-17T01:30:36.896Z,101666.25
2022-10-17T01:33:03.419Z,101670.81
2022-10-17T01:35:29.908Z,101678.06
2022-10-17T01:37:56.309Z,101669.38
2022-10-17T01:40:22.665Z,101666.47
2022-10-17T01:42:48.956Z,101659.44
2022-10-17T01:45:15.716Z,101662.94
2022-10-17T01:47:42.735Z,101662.13
2022-10-17T01:50:09.102Z,101657.53
2022-10-17T01:52:35.347Z,101655.88
2022-10-17T01:55:01.639Z,101658.38
2022-10-17T01:57:28.234Z,101654.84
2022-10-17T01:59:54.658Z,101660.44
2022-10-17T02:02:21.076Z,101663.97
2022-10-17T02:07:14.144Z,101655.88
2022-10-17T02:09:40.490Z,101655.06
2022-10-17T02:12:06.831Z,101648.00
2022-10-17T02:14:33.498Z,101659.44
2022-10-17T02:16:59.886Z,101646.94
2022-10-17T02:19:26.314Z,101644.25
2022-10-17T02:21:52.648Z,101642.63
2022-10-17T02:24:19.223Z,101642.63
2022-10-17T02:26:45.510Z,101639.91
2022-10-17T02:29:11.919Z,101639.91
2022-10-17T02:31:38.318Z,101640.97
2022-10-17T02:34:04.755Z,101645.31
2022-10-17T02:36:31.087Z,101638.28
2022-10-17T02:38:57.602Z,101639.31
2022-10-17T02:41:23.969Z,101637.44
2022-10-17T02:43:50.448Z,101634.50
2022-10-17T02:46:16.924Z,101633.94
2022-10-17T02:48:43.298Z,101638.28
2022-10-17T02:51:09.562Z,101636.63
2022-10-17T02:53:35.914Z,101645.75
2022-10-17T02:56:02.409Z,101650.13
2022-10-17T02:58:28.854Z,101658.22
2022-10-17T03:00:55.331Z,101647.41
2022-10-17T03:03:21.753Z,101650.91
2022-10-17T03:05:48.080Z,101650.91
2022-10-17T03:08:14.518Z,101645.53
2022-10-17T03:10:40.842Z,101645.53
2022-10-17T03:13:07.357Z,101647.41
2022-10-17T03:15:33.761Z,101647.41
2022-10-17T03:18:00.118Z,101649.28
2022-10-17T03:20:26.791Z,101635.78
2022-10-17T03:25:19.786Z,101646.56
2022-10-17T03:27:46.127Z,101645.75
2022-10-17T03:30:12.527Z,101643.28
2022-10-17T03:32:39.308Z,101645.75
2022-10-17T03:35:05.819Z,101646.00
2022-10-17T03:37:32.281Z,101647.63
2022-10-17T03:39:59.147Z,101646.00
2022-10-17T03:42:25.484Z,101644.09
2022-10-17T03:44:51.806Z,101656.53
2022-10-17T03:47:18.219Z,101651.38
2022-10-17T03:49:44.542Z,101638.13
2022-10-17T03:52:11.028Z,101649.50
2022-10-17T03:54:37.341Z,101659.47
2022-10-17T03:57:04.499Z,101653.25
2022-10-17T03:59:30.846Z,101649.50
2022-10-17T04:01:57.167Z,101648.69
2022-10-17T04:04:23.462Z,101645.16
2022-10-17T04:06:49.793Z,101645.38
2022-10-17T04:09:16.147Z,101647.84
2022-10-17T04:11:42.564Z,101645.38
2022-10-17T04:14:09.091Z,101646.22
2022-10-17T04:16:35.503Z,101644.50
2022-10-17T04:19:01.861Z,101637.28
2022-10-17T04:21:29.874Z,101640.81
2022-10-17T04:23:56.714Z,101644.75
2022-10-17T04:26:23.190Z,101648.25
2022-10-17T04:28:49.613Z,101646.38
2022-10-17T04:31:15.926Z,101635.59
2022-10-17T04:33:43.931Z,101641.00
2022-10-17T04:36:10.246Z,101637.28
2022-10-17T04:38:37.098Z,101636.66
2022-10-17T04:41:03.548Z,101639.97
2022-10-17T04:43:30.000Z,101645.56
2022-10-17T04:45:56.460Z,101639.34
2022-10-17T04:48:22.852Z,101638.50
2022-10-17T04:50:49.352Z,101645.56
2022-10-17T04:53:15.688Z,101647.44
2022-10-17T04:55:41.963Z,101637.47
2022-10-17T04:58:08.318Z,101642.84
2022-10-17T05:00:34.856Z,101641.22
2022-10-17T05:03:02.308Z,101642.84
2022-10-17T05:05:28.650Z,101642.25
2022-10-17T05:07:55.133Z,101639.56
2022-10-17T05:10:21.445Z,101651.16
2022-10-17T05:12:47.714Z,101651.16
2022-10-17T05:15:14.276Z,101642.03
2022-10-17T05:17:40.614Z,101646.59
2022-10-17T05:20:06.953Z,101645.78
2022-10-17T05:22:36.039Z,101647.66
2022-10-17T05:25:03.548Z,101645.78
2022-10-17T05:27:29.826Z,101636.88
2022-10-17T05:29:56.062Z,101636.03
2022-10-17T05:32:22.350Z,101641.22
2022-10-17T05:34:48.779Z,101636.88
2022-10-17T05:37:15.129Z,101638.94
2022-10-17T05:39:41.534Z,101643.31
2022-10-17T05:42:07.923Z,101639.78
2022-10-17T05:44:34.235Z,101643.31
2022-10-17T05:47:00.574Z,101644.97
2022-10-17T05:49:33.289Z,101648.72
2022-10-17T05:52:10.228Z,101643.31
2022-10-17T05:54:36.644Z,101644.34
2022-10-17T05:57:03.190Z,101649.75
2022-10-17T05:59:29.713Z,101658.66
2022-10-17T06:01:56.676Z,101658.66
2022-10-17T06:04:23.121Z,101656.41
2022-10-17T06:06:49.489Z,101671.31
2022-10-17T06:09:15.823Z,101668.63
2022-10-17T06:11:42.092Z,101672.59
2022-10-17T06:14:08.521Z,101674.47
2022-10-17T06:16:35.226Z,101681.53
2022-10-17T06:19:01.744Z,101688.78
2022-10-17T06:21:28.108Z,101686.28
2022-10-17T06:23:54.486Z,101688.78
2022-10-17T06:26:20.901Z,101686.06
2022-10-17T06:28:47.587Z,101696.06
2022-10-17T06:31:14.037Z,101693.56
2022-10-17T06:33:40.788Z,101695.44
2022-10-17T06:36:07.211Z,101699.78
2022-10-17T06:38:34.934Z,101700.63
2022-10-17T06:41:01.580Z,101699.78
2022-10-17T06:43:32.306Z,101703.53
2022-10-17T06:46:00.589Z,101698.13
2022-10-17T06:48:26.957Z,101701.25
2022-10-17T06:50:55.469Z,101710.19
2022-10-17T06:53:23.084Z,101713.72
2022-10-17T06:55:50.069Z,101719.13
2022-10-17T06:58:16.432Z,101718.06
2022-10-17T07:00:42.893Z,101720.56
2022-10-17T07:03:09.471Z,101723.47
2022-10-17T07:05:35.783Z,101724.50
2022-10-17T07:08:02.405Z,101726.59
2022-10-17T07:10:28.791Z,101730.13
2022-10-17T07:12:55.243Z,101744.41
2022-10-17T07:15:21.497Z,101743.63
2022-10-17T07:17:47.872Z,101733.63
2022-10-17T07:20:14.187Z,101736.13
2022-10-17T07:22:40.574Z,101732.63
2022-10-17T07:25:07.042Z,101728.88
2022-10-17T07:27:33.357Z,101728.88
2022-10-17T07:29:59.944Z,101731.78
2022-10-17T07:32:26.639Z,101730.72
2022-10-17T07:34:53.037Z,101731.56
2022-10-17T07:37:19.444Z,101731.56
2022-10-17T07:39:45.817Z,101739.66
2022-10-17T07:42:12.204Z,101737.78
2022-10-17T07:44:38.702Z,101737.78
2022-10-17T07:47:05.270Z,101735.09
2022-10-17T07:49:31.777Z,101736.13
2022-10-17T07:51:58.239Z,101739.66
2022-10-17T07:54:24.728Z,101744.84
2022-10-17T07:56:51.113Z,101756.44
2022-10-17T07:59:17.537Z,101746.69
2022-10-17T08:01:43.889Z,101741.31
2022-10-17T08:04:10.851Z,101742.94
2022-10-17T08:06:37.215Z,101742.13
2022-10-17T08:09:03.636Z,101746.69
2022-10-17T08:11:29.973Z,101748.34
2022-10-17T08:13:56.492Z,101751.03
2022-10-17T08:16:22.868Z,101753.97
2022-10-17T08:18:49.256Z,101756.44
2022-10-17T08:21:15.612Z,101753.72
2022-10-17T08:23:42.158Z,101756.44
2022-10-17T08:26:08.528Z,101755.41
2022-10-17T08:28:34.862Z,101759.97
2022-10-17T08:31:01.305Z,101766.22
2022-10-17T08:33:29.816Z,101762.66
2022-10-17T08:35:56.271Z,101756.44
2022-10-17T08:38:26.198Z,101754.56
2022-10-17T08:40:53.953Z,101755.41
2022-10-17T08:43:20.351Z,101756.44
2022-10-17T08:45:46.725Z,101764.31
2022-10-17T08:48:13.067Z,101764.31
2022-10-17T08:50:42.642Z,101754.38
2022-10-17T08:53:09.127Z,101754.38
2022-10-17T08:55:36.958Z,101755.16
2022-10-17T08:58:05.298Z,101762.47
2022-10-17T09:00:31.593Z,101763.25
2022-10-17T09:02:57.991Z,101757.88
2022-10-17T09:05:26.521Z,101759.13
2022-10-17T09:07:53.293Z,101752.72
2022-10-17T09:10:19.932Z,101757.84
2022-10-17T09:12:47.610Z,101754.13
2022-10-17T09:15:13.969Z,101759.94
2022-10-17T09:17:40.616Z,101753.09
2022-10-17T09:20:07.015Z,101752.03
2022-10-17T09:22:33.453Z,101749.13
2022-10-17T09:25:01.094Z,101752.66
2022-10-17T09:27:28.004Z,101751.59
2022-10-17T09:29:54.558Z,101749.50
2022-10-17T09:32:21.141Z,101748.00
2022-10-17T09:34:47.978Z,101754.03
2022-10-17T09:37:14.524Z,101747.59
2022-10-17T09:39:40.947Z,101749.84
2022-10-17T09:42:07.288Z,101748.22
2022-10-17T09:44:33.703Z,101745.72
2022-10-17T09:47:00.167Z,101750.66
2022-10-17T09:49:26.668Z,101746.09
2022-10-17T09:51:53.013Z,101745.50
2022-10-17T09:54:19.434Z,101746.94
2022-10-17T09:56:45.774Z,101746.09
2022-10-17T10:01:57.662Z,101749.41
2022-10-17T10:04:30.298Z,101744.00
2022-10-17T10:06:57.040Z,101753.16
2022-10-17T10:09:23.430Z,101753.16
2022-10-17T10:11:50.101Z,101751.50
2022-10-17T10:14:16.530Z,101746.09
2022-10-17T10:16:42.903Z,101752.34
2022-10-17T10:19:09.787Z,101742.34
2022-10-17T10:21:37.405Z,101748.59
2022-10-17T10:24:03.786Z,101744.25
2022-10-17T10:26:30.203Z,101743.63
2022-10-17T10:28:56.615Z,101740.91
2022-10-17T10:31:23.153Z,101731.41
2022-10-17T10:33:51.477Z,101732.81
2022-10-17T10:36:19.626Z,101729.31
2022-10-17T10:38:46.017Z,101728.69
2022-10-17T10:41:12.649Z,101729.53
2022-10-17T10:43:39.127Z,101727.06
2022-10-17T10:46:05.553Z,101727.06
2022-10-17T10:48:31.915Z,101725.41
2022-10-17T10:50:58.318Z,101727.25
2022-10-17T10:53:24.811Z,101724.34
2022-10-17T10:55:51.271Z,101717.53
2022-10-17T10:58:17.635Z,101718.34
2022-10-17T11:00:44.138Z,101721.03
2022-10-17T11:03:12.607Z,101712.94
2022-10-17T11:05:39.349Z,101717.31
2022-10-17T11:08:05.997Z,101710.22
2022-10-17T11:10:32.345Z,101720.44
2022-10-17T11:12:58.720Z,101717.31
2022-10-17T11:15:25.062Z,101712.94
2022-10-17T11:17:51.477Z,101712.13
2022-10-17T11:20:18.035Z,101718.34
2022-10-17T11:22:44.453Z,101712.94
2022-10-17T11:25:10.846Z,101719.16
2022-10-17T11:27:37.210Z,101716.69
2022-10-17T11:30:03.619Z,101722.91
2022-10-17T11:32:30.066Z,101723.72
2022-10-17T11:34:56.714Z,101711.06
2022-10-17T11:37:23.159Z,101707.53
2022-10-17T11:39:49.558Z,101712.34
2022-10-17T11:42:16.131Z,101712.13
2022-10-17T11:44:42.461Z,101707.53
2022-10-17T11:47:08.845Z,101703.19
2022-10-17T11:49:38.229Z,101711.06
2022-10-17T11:52:08.511Z,101708.59
2022-10-17T11:54:34.898Z,101712.94
2022-10-17T11:57:01.247Z,101702.34
2022-10-17T11:59:27.926Z,101702.13
2022-10-17T12:01:54.510Z,101696.75
2022-10-17T12:04:21.162Z,101690.53
2022-10-17T12:06:47.830Z,101691.56
2022-10-17T12:09:14.352Z,101694.03
2022-10-17T12:11:40.780Z,101690.53
2022-10-17T12:14:07.599Z,101688.06
2022-10-17T12:16:34.197Z,101688.88
2022-10-17T12:19:00.596Z,101686.16
2022-10-17T12:21:31.268Z,101688.06
2022-10-17T12:23:58.546Z,101682.66
2022-10-17T12:26:24.989Z,101679.97
2022-10-17T12:28:51.533Z,101669.75
2022-10-17T12:31:18.000Z,101677.03
2022-10-17T12:33:44.515Z,101668.13
2022-10-17T12:36:11.088Z,101668.13
2022-10-17T12:38:37.449Z,101659.19
2022-10-17T12:41:03.792Z,101666.47
2022-10-17T12:43:30.229Z,101660.22
2022-10-17T12:45:56.592Z,101661.66
2022-10-17T12:48:22.918Z,101655.66
2022-10-17T12:50:49.346Z,101647.56
2022-10-17T12:53:18.478Z,101651.06
2022-10-17T12:55:46.006Z,101646.75
2022-10-17T12:58:12.449Z,101644.88
2022-10-17T13:00:39.028Z,101642.78
2022-10-17T13:03:05.425Z,101636.78
2022-10-17T13:05:31.957Z,101639.47
2022-10-17T13:07:58.367Z,101629.75
2022-10-17T13:10:24.801Z,101627.84
2022-10-17T13:12:51.293Z,101625.16
2022-10-17T13:15:17.938Z,101634.09
2022-10-17T13:17:44.325Z,101640.53
2022-10-17T13:20:10.715Z,101639.47
2022-10-17T13:22:37.102Z,101644.03
2022-10-17T13:25:03.714Z,101644.66
2022-10-17T13:27:30.069Z,101642.97
2022-10-17T13:29:56.465Z,101643.81
2022-10-17T13:32:22.851Z,101649.22
2022-10-17T13:34:49.213Z,101644.88
2022-10-17T13:37:15.791Z,101644.88
2022-10-17T13:39:55.122Z,101639.47
2022-10-17T13:42:22.319Z,101645.47
2022-10-17T13:44:48.735Z,101646.53
2022-10-17T13:47:15.229Z,101639.47
2022-10-17T13:49:41.646Z,101641.34
2022-10-17T13:52:08.039Z,101632.44
2022-10-17T13:54:34.499Z,101638.44
2022-10-17T13:57:01.149Z,101643.81
2022-10-17T13:59:27.576Z,101638.63
2022-10-17T14:01:54.010Z,101637.59
2022-10-17T14:04:20.761Z,101642.19
2022-10-17T14:06:49.470Z,101633.25
2022-10-17T14:09:17.868Z,101631.47
2022-10-17T14:11:44.407Z,101621.19
2022-10-17T14:14:11.048Z,101631.97
2022-10-17T14:16:37.486Z,101625.78
2022-10-17T14:19:03.920Z,101628.69
2022-10-17T14:21:44.221Z,101625.78
2022-10-17T14:24:11.168Z,101630.31
2022-10-17T14:26:37.628Z,101621.19
2022-10-17T14:29:04.066Z,101627.41
2022-10-17T14:31:30.518Z,101629.28
2022-10-17T14:33:56.935Z,101625.56
2022-10-17T14:36:23.323Z,101632.81
2022-10-17T14:38:51.502Z,101634.66
2022-10-17T14:41:44.799Z,101640.91
2022-10-17T14:44:04.218Z,101641.75
2022-10-17T14:46:30.668Z,101642.56
2022-10-17T14:48:57.072Z,101644.19
2022-10-17T14:51:23.556Z,101639.03
2022-10-17T14:53:50.025Z,101644.44
2022-10-17T14:56:16.491Z,101647.72
2022-10-17T14:58:42.844Z,101649.84
2022-10-17T15:01:09.328Z,101650.66
2022-10-17T15:03:35.904Z,101655.00
2022-10-17T15:06:02.664Z,101648.78
2022-10-17T15:08:29.509Z,101650.66
2022-10-17T15:10:55.927Z,101651.47
2022-10-17T15:13:32.129Z,101650.66
2022-10-17T15:16:01.407Z,101645.25
2022-10-17T15:18:27.950Z,101656.03
2022-10-17T15:21:04.588Z,101649.59
2022-10-17T15:23:33.137Z,101658.75
2022-10-17T15:25:59.796Z,101649.00
2022-10-17T15:28:26.209Z,101660.63
2022-10-17T15:30:52.523Z,101649.84
2022-10-17T15:33:18.958Z,101646.91
2022-10-17T15:35:45.338Z,101649.59
2022-10-17T15:38:11.718Z,101648.78
2022-10-17T15:40:38.120Z,101652.28
2022-10-17T15:43:04.882Z,101647.16
2022-10-17T15:45:31.316Z,101646.91
2022-10-17T15:47:58.063Z,101652.28
2022-10-17T15:50:24.462Z,101658.53
2022-10-17T15:52:51.000Z,101652.28
2022-10-17T15:55:17.683Z,101662.06
2022-10-17T15:57:44.493Z,101661.22
2022-10-17T16:00:15.460Z,101668.28
2022-10-17T16:02:42.876Z,101664.75
2022-10-17T16:05:09.525Z,101663.72
2022-10-17T16:07:35.924Z,101668.28
2022-10-17T16:10:02.306Z,101674.50
2022-10-17T16:12:28.717Z,101677.19
2022-10-17T16:14:55.156Z,101686.94
2022-10-17T16:17:21.935Z,101688.84
2022-10-17T16:19:48.756Z,101686.94
2022-10-17T16:22:15.124Z,101696.69
2022-10-17T16:24:41.596Z,101701.28
2022-10-17T16:27:07.944Z,101696.69
2022-10-17T16:29:34.326Z,101701.50
2022-10-17T16:32:00.779Z,101698.56
2022-10-17T16:34:27.903Z,101696.69
2022-10-17T16:36:54.376Z,101695.88
2022-10-17T16:39:20.771Z,101695.88
2022-10-17T16:41:47.265Z,101693.19
2022-10-17T16:44:13.724Z,101699.63
2022-10-17T16:46:40.103Z,101695.03
2022-10-17T16:49:06.430Z,101699.38
2022-10-17T16:51:32.840Z,101698.56
2022-10-17T16:53:59.222Z,101695.88
2022-10-17T16:56:25.769Z,101705.03
2022-10-17T16:58:52.242Z,101703.97
2022-10-17T17:01:19.775Z,101702.09
2022-10-17T17:03:46.162Z,101705.03
2022-10-17T17:06:12.507Z,101695.88
2022-10-17T17:08:39.006Z,101703.13
2022-10-17T17:11:05.468Z,101697.75
2022-10-17T17:13:31.760Z,101695.03
2022-10-17T17:15:58.179Z,101691.53
2022-10-17T17:18:24.555Z,101684.25
2022-10-17T17:20:52.972Z,101689.66
2022-10-17T17:23:19.990Z,101686.94
2022-10-17T17:25:46.367Z,101691.53
2022-10-17T17:28:12.973Z,101694.22
2022-10-17T17:30:39.364Z,101685.09
2022-10-17T17:33:05.720Z,101684.25
2022-10-17T17:35:32.365Z,101680.75
2022-10-17T17:37:58.732Z,101684.25
2022-10-17T17:40:25.078Z,101696.09
2022-10-17T17:42:51.694Z,101697.75
2022-10-17T17:45:18.127Z,101698.56
2022-10-17T17:47:44.483Z,101700.44
2022-10-17T17:50:10.884Z,101692.34
2022-10-17T17:52:37.233Z,101703.97
2022-10-17T17:55:03.560Z,101713.94
2022-10-17T17:57:29.951Z,101700.44
2022-10-17T17:59:56.305Z,101711.22
2022-10-17T18:02:22.684Z,101703.97
2022-10-17T18:04:49.166Z,101709.38
2022-10-17T18:07:15.804Z,101707.72
2022-10-17T18:09:42.149Z,101716.63
2022-10-17T18:12:08.578Z,101715.81
2022-10-17T18:14:35.057Z,101719.53
2022-10-17T18:17:01.459Z,101721.22
2022-10-17T18:19:28.544Z,101715.81
2022-10-17T18:21:55.202Z,101723.94
2022-10-17T18:24:21.587Z,101715.81
2022-10-17T18:26:48.135Z,101719.53
2022-10-17T18:29:14.555Z,101724.72
2022-10-17T18:31:40.968Z,101715.81
2022-10-17T18:34:07.392Z,101719.53
2022-10-17T18:36:33.780Z,101715.81
2022-10-17T18:39:00.513Z,101715.00
2022-10-17T18:41:27.100Z,101715.00
2022-10-17T18:43:53.719Z,101710.44
2022-10-17T18:46:20.087Z,101721.22
2022-10-17T18:48:46.484Z,101723.94
2022-10-17T18:51:12.821Z,101723.94
2022-10-17T18:53:39.283Z,101722.25
2022-10-17T18:56:05.899Z,101721.44
2022-10-17T18:58:32.250Z,101723.94
2022-10-17T19:00:58.653Z,101719.53
2022-10-17T19:03:25.002Z,101726.63
2022-10-17T19:05:51.375Z,101726.84
2022-10-17T19:08:17.743Z,101723.09
2022-10-17T19:10:44.066Z,101726.63
2022-10-17T19:13:10.421Z,101726.63
2022-10-17T19:15:36.796Z,101730.13
2022-10-17T19:18:03.303Z,101729.31
2022-10-17T19:20:29.664Z,101732.03
2022-10-17T19:22:56.009Z,101729.31
2022-10-17T19:25:22.378Z,101727.63
2022-10-17T19:27:48.859Z,101726.63
2022-10-17T19:30:15.288Z,101730.34
2022-10-17T19:32:42.150Z,101747.38
2022-10-17T19:35:08.535Z,101749.22
2022-10-17T19:37:34.971Z,101752.78
2022-10-17T19:40:01.437Z,101756.31
2022-10-17T19:42:28.407Z,101756.53
2022-10-17T19:44:55.312Z,101755.69
2022-10-17T19:47:21.649Z,101761.72
2022-10-17T19:49:50.145Z,101754.63
2022-10-17T19:52:16.694Z,101757.31
2022-10-17T19:54:43.165Z,101758.16
2022-10-17T19:57:10.609Z,101770.81
2022-10-17T19:59:37.189Z,101767.91
2022-10-17T20:02:03.680Z,101774.38
2022-10-17T20:04:31.566Z,101770.81
2022-10-17T20:06:58.099Z,101769.81
2022-10-17T20:09:24.531Z,101772.50
2022-10-17T20:11:50.899Z,101770.03
2022-10-17T20:14:17.328Z,101772.72
2022-10-17T20:16:43.765Z,101773.53
2022-10-17T20:19:10.299Z,101768.13
2022-10-17T20:21:36.627Z,101767.31
2022-10-17T20:24:03.386Z,101766.47
2022-10-17T20:26:38.564Z,101774.38
2022-10-17T20:29:06.513Z,101774.38
2022-10-17T20:31:32.911Z,101771.03
2022-10-17T20:33:59.315Z,101770.81
2022-10-17T20:36:25.640Z,101772.72
2022-10-17T20:38:52.000Z,101768.34
2022-10-17T20:41:18.372Z,101774.56
2022-10-17T20:43:44.852Z,101770.03
2022-10-17T20:46:23.535Z,101775.41
2022-10-17T20:48:56.056Z,101773.53
2022-10-17T20:51:22.408Z,101777.28
2022-10-17T20:53:48.844Z,101777.28
2022-10-17T20:56:15.287Z,101787.22
2022-10-17T20:58:41.699Z,101783.50
2022-10-17T21:01:08.105Z,101779.97
2022-10-17T21:03:34.444Z,101793.47
2022-10-17T21:06:00.956Z,101779.13
2022-10-17T21:08:27.504Z,101790.78
2022-10-17T21:10:53.869Z,101785.59
2022-10-17T21:13:20.222Z,101797.22
2022-10-17T21:15:46.659Z,101798.03
2022-10-17T21:18:12.967Z,101794.53
2022-10-17T21:20:39.313Z,101788.28
2022-10-17T21:23:05.658Z,101795.56
2022-10-17T21:25:32.139Z,101800.72
2022-10-17T21:27:58.631Z,101797.22
2022-10-17T21:30:25.119Z,101802.63
2022-10-17T21:32:52.118Z,101806.38
2022-10-17T21:35:18.690Z,101799.06
2022-10-17T21:37:45.076Z,101809.66
2022-10-17T21:40:11.447Z,101797.00
2022-10-17T21:42:37.947Z,101804.47
2022-10-17T21:45:10.603Z,101811.53
2022-10-17T21:47:54.966Z,101808.00
2022-10-17T21:50:30.572Z,101808.81
2022-10-17T21:52:57.165Z,101802.63
2022-10-17T21:55:23.528Z,101810.72
2022-10-17T21:57:49.857Z,101811.75
2022-10-17T22:00:16.355Z,101800.97
2022-10-17T22:02:42.739Z,101803.66
2022-10-17T22:05:10.592Z,101810.94
2022-10-17T22:07:37.138Z,101811.75
2022-10-17T22:10:03.582Z,101805.75
2022-10-17T22:12:30.381Z,101803.66
2022-10-17T22:14:56.943Z,101808.00
2022-10-17T22:17:23.494Z,101803.66
2022-10-17T22:19:49.833Z,101805.75
2022-10-17T22:22:16.278Z,101807.38
2022-10-17T22:24:42.902Z,101808.44
2022-10-17T22:27:09.265Z,101807.38
2022-10-17T22:29:35.757Z,101814.69
2022-10-17T22:32:02.254Z,101811.75
2022-10-17T22:34:28.615Z,101812.78
2022-10-17T22:36:55.001Z,101808.22
2022-10-17T22:39:21.492Z,101814.69
2022-10-17T22:41:47.853Z,101815.47
2022-10-17T22:44:14.277Z,101814.88
2022-10-17T22:46:40.664Z,101817.59
2022-10-17T22:49:07.269Z,101818.41
2022-10-17T22:51:33.757Z,101818.19
2022-10-17T22:54:00.144Z,101818.19
2022-10-17T22:56:26.607Z,101817.38
2022-10-17T22:58:52.975Z,101812.19
2022-10-17T23:01:19.440Z,101808.66
2022-10-17T23:03:45.931Z,101822.16
2022-10-17T23:06:12.297Z,101815.94
2022-10-17T23:08:38.663Z,101827.53
2022-10-17T23:11:05.020Z,101824.63
2022-10-17T23:13:31.388Z,101828.16
2022-10-17T23:15:58.176Z,101827.53
2022-10-17T23:18:24.587Z,101824.63
2022-10-17T23:20:51.058Z,101828.16
2022-10-17T23:23:17.427Z,101826.28
2022-10-17T23:25:43.992Z,101819.44
2022-10-17T23:28:10.318Z,101820.28
2022-10-17T23:30:37.912Z,101820.50
2022-10-17T23:33:04.360Z,101830.03
2022-10-17T23:35:30.715Z,101830.88
2022-10-17T23:37:57.183Z,101822.34
2022-10-17T23:40:23.691Z,101825.69
2022-10-17T23:42:49.971Z,101831.69
2022-10-17T23:45:16.436Z,101832.50
2022-10-17T23:47:43.004Z,101834.16
2022-10-17T23:50:09.381Z,101828.75
2022-10-17T23:52:35.820Z,101827.13
2022-10-17T23:55:02.147Z,101830.66
2022-10-17T23:57:28.891Z,101826.28
2022-10-17T23:59:55.649Z,101828.38
